createdAt,value
2018-06-29T00:00:46.357Z,7.50
2018-06-29T00:03:14.860Z,7.60
2018-06-29T00:05:43.218Z,7.55
2018-06-29T00:08:11.633Z,7.62
2018-06-29T00:10:39.937Z,7.25
2018-06-29T00:13:07.997Z,8.05
2018-06-29T00:15:36.094Z,7.42
2018-06-29T00:18:04.450Z,7.97
2018-06-29T00:20:32.523Z,8.50
2018-06-29T00:23:00.611Z,7.92
2018-06-29T00:25:30.137Z,7.85
2018-06-29T00:27:58.393Z,8.18
2018-06-29T00:30:27.339Z,8.25
2018-06-29T00:32:55.681Z,7.87
2018-06-29T00:35:23.979Z,8.20
2018-06-29T00:37:52.353Z,7.97
2018-06-29T00:40:20.729Z,7.50
2018-06-29T00:42:49.046Z,8.70
2018-06-29T00:45:17.391Z,9.53
2018-06-29T00:47:46.706Z,8.08
2018-06-29T00:50:15.047Z,9.88
2018-06-29T00:52:43.389Z,11.23
2018-06-29T00:55:11.734Z,11.03
2018-06-29T00:57:40.018Z,10.78
2018-06-29T01:00:09.436Z,9.63
2018-06-29T01:02:37.796Z,11.73
2018-06-29T01:05:06.161Z,10.05
2018-06-29T01:07:34.525Z,8.28
2018-06-29T01:10:04.451Z,8.60
2018-06-29T01:12:32.520Z,7.60
2018-06-29T01:15:00.910Z,6.72
2018-06-29T01:17:29.248Z,8.25
2018-06-29T01:19:57.340Z,8.40
2018-06-29T01:22:25.686Z,9.18
2018-06-29T01:24:53.989Z,9.00
2018-06-29T01:27:22.322Z,10.00
2018-06-29T01:29:50.681Z,9.00
2018-06-29T01:32:19.018Z,9.83
2018-06-29T01:34:47.293Z,9.77
2018-06-29T01:37:15.650Z,10.17
2018-06-29T01:39:44.009Z,10.73
2018-06-29T01:42:12.379Z,10.60
2018-06-29T01:44:40.714Z,11.00
2018-06-29T01:47:08.976Z,10.73
2018-06-29T01:49:37.007Z,11.13
2018-06-29T01:52:05.675Z,11.93
2018-06-29T01:54:34.013Z,10.27
2018-06-29T01:57:02.347Z,11.23
2018-06-29T01:59:30.679Z,10.60
2018-06-29T02:01:59.017Z,13.98
2018-06-29T02:04:27.337Z,12.43
2018-06-29T02:06:55.702Z,13.45
2018-06-29T02:09:23.767Z,12.27
2018-06-29T02:11:52.069Z,11.93
2018-06-29T02:14:20.445Z,12.33
2018-06-29T02:16:48.784Z,12.40
2018-06-29T02:19:17.100Z,12.33
2018-06-29T02:21:45.177Z,12.30
2018-06-29T02:24:13.511Z,12.40
2018-06-29T02:26:41.844Z,12.13
2018-06-29T02:29:10.187Z,15.23
2018-06-29T02:31:38.506Z,12.17
2018-06-29T02:34:06.803Z,12.80
2018-06-29T02:36:35.181Z,10.60
2018-06-29T02:39:10.436Z,11.90
2018-06-29T02:41:38.758Z,10.63
2018-06-29T02:44:07.213Z,11.97
2018-06-29T02:46:35.270Z,11.47
2018-06-29T02:49:03.622Z,11.83
2018-06-29T02:51:31.992Z,10.87
2018-06-29T02:54:01.490Z,9.95
2018-06-29T02:56:29.841Z,10.93
2018-06-29T02:58:58.852Z,12.13
2018-06-29T03:01:27.273Z,11.57
2018-06-29T03:03:55.615Z,10.70
2018-06-29T03:06:23.943Z,10.67
2018-06-29T03:08:52.292Z,11.03
2018-06-29T03:11:20.634Z,9.97
2018-06-29T03:13:49.965Z,12.28
2018-06-29T03:16:18.365Z,11.80
2018-06-29T03:18:46.662Z,9.90
2018-06-29T03:21:15.255Z,11.13
2018-06-29T03:23:45.070Z,13.03
2018-06-29T03:26:13.106Z,11.37
2018-06-29T03:28:41.501Z,10.60
2018-06-29T03:31:09.865Z,10.47
2018-06-29T03:33:38.222Z,12.68
2018-06-29T03:36:06.654Z,11.70
2018-06-29T03:38:35.027Z,10.67
2018-06-29T03:41:03.302Z,10.97
2018-06-29T03:43:31.634Z,9.83
2018-06-29T03:45:59.986Z,10.77
2018-06-29T03:48:28.321Z,10.00
2018-06-29T03:50:59.079Z,10.43
2018-06-29T03:53:28.352Z,10.97
2018-06-29T03:55:56.784Z,11.60
2018-06-29T03:58:25.128Z,10.20
2018-06-29T04:00:53.493Z,10.53
2018-06-29T04:03:21.923Z,9.53
2018-06-29T04:05:50.196Z,9.83
2018-06-29T04:08:18.269Z,10.53
2018-06-29T04:10:46.323Z,11.47
2018-06-29T04:13:14.652Z,10.57
2018-06-29T04:15:43.023Z,10.83
2018-06-29T04:18:11.287Z,10.23
2018-06-29T04:20:39.683Z,10.77
2018-06-29T04:23:08.010Z,10.27
2018-06-29T04:25:36.333Z,11.27
2018-06-29T04:28:04.908Z,10.80
2018-06-29T04:30:32.967Z,10.90
2018-06-29T04:33:01.022Z,10.70
2018-06-29T04:35:30.625Z,11.03
2018-06-29T04:37:59.245Z,13.98
2018-06-29T04:40:28.502Z,11.90
2018-06-29T04:42:56.994Z,11.30
2018-06-29T04:45:25.349Z,11.70
2018-06-29T04:47:53.751Z,11.47
2018-06-29T04:50:24.736Z,12.98
2018-06-29T04:52:52.812Z,11.83
2018-06-29T04:55:21.114Z,12.57
2018-06-29T04:57:51.640Z,12.30
2018-06-29T05:00:19.982Z,12.27
2018-06-29T05:02:49.394Z,12.43
2018-06-29T05:05:17.769Z,11.97
2018-06-29T05:07:46.198Z,12.13
2018-06-29T05:10:14.550Z,11.77
2018-06-29T05:12:42.895Z,14.70
2018-06-29T05:15:10.947Z,12.27
2018-06-29T05:17:39.011Z,10.93
2018-06-29T05:20:10.429Z,11.83
2018-06-29T05:22:39.664Z,11.47
2018-06-29T05:25:08.051Z,12.13
2018-06-29T05:27:36.245Z,11.63
2018-06-29T05:30:05.775Z,11.33
2018-06-29T05:32:34.130Z,11.10
2018-06-29T05:35:02.545Z,12.30
2018-06-29T05:37:30.917Z,11.00
2018-06-29T05:39:59.279Z,11.73
2018-06-29T05:42:27.678Z,10.73
2018-06-29T05:44:56.046Z,10.27
2018-06-29T05:47:25.328Z,10.77
2018-06-29T05:49:53.664Z,11.10
2018-06-29T05:52:22.016Z,12.60
2018-06-29T05:54:50.322Z,9.65
2018-06-29T05:57:18.709Z,11.07
2018-06-29T05:59:47.934Z,10.43
2018-06-29T06:02:15.956Z,9.53
2018-06-29T06:04:44.417Z,9.97
2018-06-29T06:07:12.669Z,9.10
2018-06-29T06:09:40.731Z,10.77
2018-06-29T06:12:10.837Z,10.40
2018-06-29T06:14:38.820Z,9.27
2018-06-29T06:17:07.233Z,9.07
2018-06-29T06:19:53.397Z,9.67
2018-06-29T06:22:21.705Z,7.73
2018-06-29T06:24:50.064Z,8.50
2018-06-29T06:27:18.143Z,7.20
2018-06-29T06:29:46.517Z,5.70
2018-06-29T06:32:14.820Z,7.20
2018-06-29T06:34:43.210Z,7.05
2018-06-29T06:37:11.552Z,6.42
2018-06-29T06:39:39.664Z,6.30
2018-06-29T06:42:09.286Z,5.60
2018-06-29T06:44:37.633Z,6.03
2018-06-29T06:47:06.571Z,5.73
2018-06-29T06:49:35.224Z,5.53
2018-06-29T06:52:05.321Z,5.63
2018-06-29T06:54:34.073Z,4.80
2018-06-29T06:57:02.220Z,5.93
2018-06-29T06:59:30.597Z,5.50
2018-06-29T07:01:58.921Z,5.40
2018-06-29T07:04:27.040Z,5.23
2018-06-29T07:06:55.478Z,5.83
2018-06-29T07:09:23.634Z,5.57
2018-06-29T07:11:52.006Z,5.40
2018-06-29T07:14:20.290Z,5.30
2018-06-29T07:16:48.345Z,6.17
2018-06-29T07:19:16.848Z,5.50
2018-06-29T07:21:44.915Z,5.07
2018-06-29T07:24:12.952Z,4.90
2018-06-29T07:26:41.362Z,5.30
2018-06-29T07:29:09.704Z,4.87
2018-06-29T07:31:38.029Z,5.45
2018-06-29T07:34:06.106Z,5.50
2018-06-29T07:36:37.986Z,5.40
2018-06-29T07:39:10.188Z,5.97
2018-06-29T07:41:38.606Z,5.70
2018-06-29T07:44:06.679Z,5.60
2018-06-29T07:46:34.825Z,5.80
2018-06-29T07:49:03.241Z,5.37
2018-06-29T07:51:31.304Z,6.37
2018-06-29T07:53:59.368Z,5.87
2018-06-29T07:56:27.682Z,5.60
2018-06-29T07:58:58.463Z,6.20
2018-06-29T08:01:26.436Z,5.55
2018-06-29T08:03:54.819Z,7.15
2018-06-29T08:06:23.061Z,5.53
2018-06-29T08:09:02.032Z,5.90
2018-06-29T08:11:30.337Z,4.78
2018-06-29T08:13:58.634Z,5.40
2018-06-29T08:16:27.117Z,5.53
2018-06-29T08:18:55.185Z,5.67
2018-06-29T08:21:24.252Z,5.22
2018-06-29T08:23:52.359Z,4.78
2018-06-29T08:26:22.340Z,5.45
2018-06-29T08:28:50.381Z,5.33
2018-06-29T08:31:18.735Z,4.95
2018-06-29T08:33:47.055Z,6.28
2018-06-29T08:36:15.137Z,5.33
2018-06-29T08:38:43.411Z,5.90
2018-06-29T08:41:11.635Z,6.08
2018-06-29T08:43:39.961Z,5.33
2018-06-29T08:46:08.159Z,6.97
2018-06-29T08:48:36.392Z,6.12
2018-06-29T08:51:04.712Z,5.33
2018-06-29T08:53:33.069Z,4.78
2018-06-29T08:56:01.361Z,5.37
2018-06-29T08:58:29.397Z,5.85
2018-06-29T09:00:57.771Z,4.87
2018-06-29T09:03:26.117Z,6.07
2018-06-29T09:05:54.519Z,5.30
2018-06-29T09:08:22.818Z,5.37
2018-06-29T09:10:51.212Z,5.65
2018-06-29T09:13:19.490Z,5.80
2018-06-29T09:15:47.601Z,6.17
2018-06-29T09:18:15.922Z,6.15
2018-06-29T09:20:44.273Z,5.12
2018-06-29T09:23:12.650Z,5.80
2018-06-29T09:25:40.969Z,5.50
2018-06-29T09:28:09.023Z,5.37
2018-06-29T09:30:37.401Z,5.45
2018-06-29T09:33:05.768Z,6.00
2018-06-29T09:35:34.115Z,6.30
2018-06-29T09:38:02.495Z,6.30
2018-06-29T09:40:30.518Z,5.47
2018-06-29T09:42:58.831Z,6.22
2018-06-29T09:45:27.177Z,5.65
2018-06-29T09:47:58.496Z,5.83
2018-06-29T09:50:26.512Z,6.62
2018-06-29T09:52:54.944Z,6.85
2018-06-29T09:55:23.319Z,5.78
2018-06-29T09:57:51.640Z,5.30
2018-06-29T10:00:32.571Z,5.58
2018-06-29T10:03:01.305Z,5.60
2018-06-29T10:05:29.812Z,5.75
2018-06-29T10:07:58.176Z,4.90
2018-06-29T10:10:26.252Z,5.33
2018-06-29T10:12:54.334Z,6.30
2018-06-29T10:15:22.674Z,5.35
2018-06-29T10:17:51.057Z,5.50
2018-06-29T10:20:19.542Z,4.85
2018-06-29T10:22:47.789Z,4.72
2018-06-29T10:25:16.134Z,5.20
2018-06-29T10:27:44.443Z,5.50
2018-06-29T10:30:12.782Z,5.25
2018-06-29T10:32:40.855Z,5.12
2018-06-29T10:35:09.235Z,4.80
2018-06-29T10:37:37.728Z,5.45
2018-06-29T10:40:08.926Z,4.87
2018-06-29T10:42:37.026Z,4.45
2018-06-29T10:45:05.297Z,4.17
2018-06-29T10:47:33.533Z,4.58
2018-06-29T10:50:01.882Z,3.95
2018-06-29T10:52:30.255Z,4.42
2018-06-29T10:54:58.575Z,5.08
2018-06-29T10:57:26.964Z,3.87
2018-06-29T10:59:55.348Z,4.65
2018-06-29T11:02:23.683Z,4.78
2018-06-29T11:04:52.112Z,5.10
2018-06-29T11:07:20.895Z,4.80
2018-06-29T11:09:49.270Z,5.30
2018-06-29T11:12:17.699Z,4.80
2018-06-29T11:14:46.138Z,4.62
2018-06-29T11:17:14.209Z,5.03
2018-06-29T11:19:42.515Z,5.08
2018-06-29T11:22:10.883Z,4.37
2018-06-29T11:24:39.848Z,4.15
2018-06-29T11:27:08.341Z,4.15
2018-06-29T11:29:36.715Z,5.28
2018-06-29T11:32:05.012Z,5.17
2018-06-29T11:34:33.076Z,4.42
2018-06-29T11:37:01.205Z,4.08
2018-06-29T11:39:29.589Z,4.35
2018-06-29T11:41:57.893Z,3.98
2018-06-29T11:44:26.259Z,4.15
2018-06-29T11:46:54.569Z,4.85
2018-06-29T11:49:22.623Z,4.85
2018-06-29T11:51:50.718Z,4.40
2018-06-29T11:54:18.782Z,3.77
2018-06-29T11:56:46.945Z,3.72
2018-06-29T11:59:15.315Z,4.28
2018-06-29T12:01:43.793Z,3.80
2018-06-29T12:04:12.159Z,3.77
2018-06-29T12:06:40.529Z,4.05
2018-06-29T12:09:10.580Z,4.10
2018-06-29T12:11:38.989Z,3.98
2018-06-29T12:14:07.366Z,4.55
2018-06-29T12:16:35.728Z,4.72
2018-06-29T12:19:03.794Z,4.50
2018-06-29T12:21:31.892Z,5.12
2018-06-29T12:24:00.213Z,4.85
2018-06-29T12:26:28.577Z,4.78
2018-06-29T12:28:57.891Z,6.67
2018-06-29T12:31:26.284Z,6.62
2018-06-29T12:33:54.683Z,6.67
2018-06-29T12:36:22.779Z,6.53
2018-06-29T12:38:51.096Z,7.70
2018-06-29T12:41:19.440Z,7.95
2018-06-29T12:43:48.998Z,8.60
2018-06-29T12:46:17.456Z,7.78
2018-06-29T12:48:45.790Z,8.88
2018-06-29T12:51:14.033Z,8.75
2018-06-29T12:53:42.432Z,8.73
2018-06-29T12:56:10.832Z,10.23
2018-06-29T12:58:39.229Z,10.35
2018-06-29T13:01:07.733Z,10.18
2018-06-29T13:03:35.806Z,12.20
2018-06-29T13:06:04.193Z,10.55
2018-06-29T13:08:32.612Z,9.83
2018-06-29T13:11:00.702Z,12.50
2018-06-29T13:13:29.044Z,10.35
2018-06-29T13:15:57.477Z,10.40
2018-06-29T13:18:25.924Z,12.13
2018-06-29T13:20:54.830Z,11.10
2018-06-29T13:23:23.341Z,9.93
2018-06-29T13:25:51.830Z,9.98
2018-06-29T13:28:20.378Z,10.95
2018-06-29T13:30:48.831Z,11.80
2018-06-29T13:33:17.362Z,12.43
2018-06-29T13:35:45.888Z,11.78
2018-06-29T13:38:14.371Z,10.78
2018-06-29T13:40:42.892Z,11.73
2018-06-29T13:43:11.363Z,10.48
2018-06-29T13:45:39.515Z,10.85
2018-06-29T13:48:08.032Z,11.93
2018-06-29T13:50:36.508Z,12.03
2018-06-29T13:53:05.330Z,11.88
2018-06-29T13:55:34.101Z,12.00
2018-06-29T13:58:03.047Z,11.85
2018-06-29T14:00:31.621Z,11.95
2018-06-29T14:03:00.127Z,11.93
2018-06-29T14:05:28.573Z,11.95
2018-06-29T14:07:57.065Z,12.15
2018-06-29T14:10:25.544Z,13.05
2018-06-29T14:12:54.100Z,13.13
2018-06-29T14:15:22.590Z,12.33
2018-06-29T14:17:51.053Z,12.68
2018-06-29T14:20:19.580Z,12.45
2018-06-29T14:22:50.844Z,13.40
2018-06-29T14:25:19.025Z,13.55
2018-06-29T14:27:47.188Z,13.00
2018-06-29T14:30:15.329Z,12.55
2018-06-29T14:32:43.792Z,12.20
2018-06-29T14:35:12.274Z,12.47
2018-06-29T14:37:40.709Z,12.37
2018-06-29T14:40:08.843Z,11.97
2018-06-29T14:42:37.414Z,12.20
2018-06-29T14:45:05.613Z,12.68
2018-06-29T14:47:34.102Z,13.22
2018-06-29T14:50:02.627Z,13.65
2018-06-29T14:52:31.108Z,13.38
2018-06-29T14:54:59.546Z,12.73
2018-06-29T14:57:28.021Z,13.03
2018-06-29T14:59:56.480Z,13.70
2018-06-29T15:02:24.960Z,13.28
2018-06-29T15:04:53.487Z,12.78
2018-06-29T15:07:21.957Z,12.80
2018-06-29T15:09:50.488Z,12.80
2018-06-29T15:12:18.954Z,12.58
2018-06-29T15:14:47.407Z,12.47
2018-06-29T15:17:15.859Z,13.60
2018-06-29T15:19:44.300Z,12.78
2018-06-29T15:22:12.446Z,13.60
2018-06-29T15:24:40.923Z,13.15
2018-06-29T15:27:09.437Z,12.80
2018-06-29T15:29:37.599Z,12.78
2018-06-29T15:32:07.394Z,12.58
2018-06-29T15:34:35.925Z,11.95
2018-06-29T15:37:05.371Z,11.28
2018-06-29T15:39:33.825Z,10.48
2018-06-29T15:42:03.808Z,9.70
2018-06-29T15:44:31.951Z,9.65
2018-06-29T15:47:00.409Z,8.50
2018-06-29T15:49:28.888Z,9.35
2018-06-29T15:51:57.396Z,8.48
2018-06-29T15:54:25.844Z,7.95
2018-06-29T15:56:54.405Z,8.63
2018-06-29T15:59:22.861Z,8.30
2018-06-29T16:01:50.991Z,9.18
2018-06-29T16:04:19.488Z,9.08
2018-06-29T16:06:47.956Z,8.55
2018-06-29T16:09:16.393Z,9.68
2018-06-29T16:11:44.867Z,8.90
2018-06-29T16:14:13.017Z,9.03
2018-06-29T16:16:45.338Z,9.38
2018-06-29T16:19:15.159Z,9.55
2018-06-29T16:21:43.604Z,10.63
2018-06-29T16:24:13.213Z,10.00
2018-06-29T16:26:41.410Z,10.60
2018-06-29T16:29:09.922Z,9.83
2018-06-29T16:31:38.335Z,9.80
2018-06-29T16:34:06.548Z,9.73
2018-06-29T16:36:35.012Z,9.73
2018-06-29T16:39:03.334Z,9.20
2018-06-29T16:41:31.852Z,9.40
2018-06-29T16:44:00.361Z,9.20
2018-06-29T16:46:28.501Z,8.73
2018-06-29T16:48:58.189Z,9.33
2018-06-29T16:51:26.614Z,9.40
2018-06-29T16:53:54.742Z,8.98
2018-06-29T16:56:23.234Z,8.90
2018-06-29T16:58:51.682Z,11.68
2018-06-29T17:01:20.142Z,12.10
2018-06-29T17:03:49.821Z,8.80
2018-06-29T17:06:18.286Z,8.63
2018-06-29T17:08:46.947Z,8.45
2018-06-29T17:11:15.058Z,8.63
2018-06-29T17:13:43.489Z,8.45
2018-06-29T17:16:12.043Z,8.43
2018-06-29T17:28:11.242Z,9.05
2018-06-29T17:30:39.705Z,8.30
2018-06-29T17:33:08.150Z,7.65
2018-06-29T17:35:36.626Z,8.08
2018-06-29T17:38:05.080Z,7.10
2018-06-29T17:40:33.544Z,8.50
2018-06-29T17:43:02.068Z,7.58
2018-06-29T17:45:30.537Z,7.78
2018-06-29T17:47:58.991Z,9.78
2018-06-29T17:50:27.132Z,7.58
2018-06-29T17:52:55.736Z,8.60
2018-06-29T17:55:23.930Z,7.58
2018-06-29T17:57:52.346Z,7.87
2018-06-29T18:00:20.966Z,8.73
2018-06-29T18:02:49.392Z,7.28
2018-06-29T18:05:17.954Z,7.70
2018-06-29T18:07:46.347Z,7.53
2018-06-29T18:10:14.820Z,7.83
2018-06-29T18:12:43.359Z,9.75
2018-06-29T18:15:11.817Z,8.03
2018-06-29T18:17:40.281Z,8.20
2018-06-29T18:20:08.738Z,9.05
2018-06-29T18:22:37.316Z,9.30
2018-06-29T18:25:05.864Z,7.78
2018-06-29T18:27:34.285Z,7.50
2018-06-29T18:30:02.770Z,7.42
2018-06-29T18:32:31.196Z,8.33
2018-06-29T18:34:59.381Z,8.28
2018-06-29T18:37:27.537Z,8.63
2018-06-29T18:39:56.071Z,7.30
2018-06-29T18:42:24.589Z,8.60
2018-06-29T18:44:53.082Z,8.20
2018-06-29T18:47:21.557Z,8.00
2018-06-29T18:49:50.079Z,8.10
2018-06-29T18:52:18.205Z,8.60
2018-06-29T18:54:46.696Z,8.55
2018-06-29T18:57:15.177Z,7.72
2018-06-29T18:59:43.689Z,7.65
2018-06-29T19:02:12.152Z,7.22
2018-06-29T19:04:40.667Z,7.70
2018-06-29T19:07:09.114Z,8.00
2018-06-29T19:09:37.629Z,8.60
2018-06-29T19:12:05.820Z,8.65
2018-06-29T19:14:34.290Z,8.13
2018-06-29T19:17:02.760Z,8.23
2018-06-29T19:19:31.338Z,7.60
2018-06-29T19:21:59.510Z,8.30
2018-06-29T19:24:27.670Z,7.78
2018-06-29T19:26:56.198Z,8.45
2018-06-29T19:29:24.639Z,9.00
2018-06-29T19:31:54.000Z,9.08
2018-06-29T19:34:21.312Z,8.95
2018-06-29T19:36:49.776Z,9.43
2018-06-29T19:39:17.928Z,9.93
2018-06-29T19:41:46.453Z,9.68
2018-06-29T19:44:14.930Z,8.75
2018-06-29T19:46:43.352Z,8.93
2018-06-29T19:49:11.843Z,8.65
2018-06-29T19:51:40.272Z,9.70
2018-06-29T19:54:08.463Z,10.23
2018-06-29T19:56:36.997Z,9.98
2018-06-29T19:59:05.540Z,10.55
2018-06-29T20:01:34.014Z,11.78
2018-06-29T20:04:02.493Z,10.18
2018-06-29T20:06:30.947Z,10.20
2018-06-29T20:08:59.070Z,11.00
2018-06-29T20:11:27.592Z,9.98
2018-06-29T20:13:56.059Z,10.65
2018-06-29T20:16:25.395Z,10.63
2018-06-29T20:18:53.609Z,10.72
2018-06-29T20:21:22.137Z,11.10
2018-06-29T20:23:50.321Z,42.95
2018-06-29T20:26:18.498Z,12.00
2018-06-29T20:28:46.644Z,11.25
2018-06-29T20:31:15.121Z,11.48
2018-06-29T20:33:43.616Z,14.10
2018-06-29T20:36:12.073Z,12.33
2018-06-29T20:38:40.765Z,12.95
2018-06-29T20:41:09.064Z,14.75
2018-06-29T20:43:37.513Z,12.82
2018-06-29T20:46:05.964Z,12.65
2018-06-29T20:48:34.654Z,13.05
2018-06-29T20:51:02.923Z,12.73
2018-06-29T20:53:31.355Z,14.33
2018-06-29T20:55:59.845Z,12.18
2018-06-29T20:58:28.339Z,15.03
2018-06-29T21:00:56.794Z,13.48
2018-06-29T21:03:25.273Z,13.10
2018-06-29T21:05:53.819Z,11.80
2018-06-29T21:08:22.251Z,14.63
2018-06-29T21:10:50.744Z,12.90
2018-06-29T21:13:19.180Z,13.22
2018-06-29T21:15:47.655Z,12.40
2018-06-29T21:18:16.175Z,12.05
2018-06-29T21:20:44.624Z,12.37
2018-06-29T21:23:13.083Z,14.40
2018-06-29T21:25:41.236Z,14.38
2018-06-29T21:28:09.696Z,12.68
2018-06-29T21:30:38.134Z,13.13
2018-06-29T21:33:06.633Z,12.78
2018-06-29T21:35:35.110Z,12.58
2018-06-29T21:38:03.602Z,11.97
2018-06-29T21:40:32.317Z,13.22
2018-06-29T21:43:00.784Z,15.85
2018-06-29T21:45:29.235Z,13.45
2018-06-29T21:47:57.774Z,16.40
2018-06-29T21:50:25.909Z,14.40
2018-06-29T21:52:54.417Z,14.13
2018-06-29T21:55:22.912Z,17.57
2018-06-29T21:57:51.042Z,16.20
2018-06-29T22:00:19.484Z,15.28
2018-06-29T22:02:47.656Z,15.85
2018-06-29T22:05:17.355Z,14.00
2018-06-29T22:07:45.578Z,15.25
2018-06-29T22:10:14.048Z,14.68
2018-06-29T22:12:42.477Z,14.65
2018-06-29T22:15:18.447Z,14.98
2018-06-29T22:17:46.658Z,15.08
2018-06-29T22:20:14.778Z,15.35
2018-06-29T22:22:43.229Z,16.00
2018-06-29T22:25:11.706Z,16.73
2018-06-29T22:27:40.169Z,15.30
2018-06-29T22:30:08.636Z,14.18
2018-06-29T22:32:37.173Z,15.40
2018-06-29T22:35:05.663Z,14.58
2018-06-29T22:37:34.119Z,14.93
2018-06-29T22:40:02.634Z,15.55
2018-06-29T22:42:30.790Z,14.00
2018-06-29T22:44:59.273Z,16.93
2018-06-29T22:47:27.743Z,14.95
2018-06-29T22:49:56.248Z,17.95
2018-06-29T22:52:24.730Z,18.30
2018-06-29T22:54:53.201Z,18.80
2018-06-29T22:57:21.718Z,18.50
2018-06-29T22:59:49.855Z,18.10
2018-06-29T23:02:18.312Z,15.53
2018-06-29T23:04:46.721Z,15.98
2018-06-29T23:07:15.192Z,14.30
2018-06-29T23:09:43.744Z,17.32
2018-06-29T23:12:11.997Z,14.80
2018-06-29T23:14:40.149Z,13.70
2018-06-29T23:17:08.363Z,14.58
2018-06-29T23:19:37.118Z,14.00
2018-06-29T23:22:05.408Z,14.10
2018-06-29T23:24:33.572Z,13.35
2018-06-29T23:27:02.096Z,13.03
2018-06-29T23:29:30.549Z,13.60
2018-06-29T23:31:59.076Z,14.20
2018-06-29T23:34:27.578Z,13.22
2018-06-29T23:36:56.078Z,12.85
2018-06-29T23:39:24.543Z,13.10
2018-06-29T23:41:53.016Z,11.12
2018-06-29T23:44:21.473Z,12.33
2018-06-29T23:46:49.953Z,14.65
2018-06-29T23:49:18.394Z,12.03
2018-06-29T23:51:46.508Z,12.15
2018-06-29T23:54:15.017Z,12.15
2018-06-29T23:56:43.436Z,10.85
2018-06-29T23:59:11.601Z,10.70
